sensor_id;sensor_type;location;lat;lon;timestamp;pressure;altitude;pressure_sealevel;temperature;humidity
76285;BME280;71676;50.998;7.098;2023-09-08T00:00:46;101130.00;;;19.82;50.18
76285;BME280;71676;50.998;7.098;2023-09-08T00:03:13;101132.63;;;19.82;49.88
76285;BME280;71676;50.998;7.098;2023-09-08T00:05:39;101119.78;;;19.73;49.77
76285;BME280;71676;50.998;7.098;2023-09-08T00:08:06;101128.38;;;19.78;49.99
76285;BME280;71676;50.998;7.098;2023-09-08T00:10:33;101124.97;;;19.75;50.44
76285;BME280;71676;50.998;7.098;2023-09-08T00:13:01;101127.66;;;19.72;49.91
76285;BME280;71676;50.998;7.098;2023-09-08T00:15:27;101117.31;;;19.67;50.10
76285;BME280;71676;50.998;7.098;2023-09-08T00:17:54;101113.19;;;19.57;50.17
76285;BME280;71676;50.998;7.098;2023-09-08T00:20:22;101120.97;;;19.60;50.79
76285;BME280;71676;50.998;7.098;2023-09-08T00:22:48;101116.72;;;19.56;50.82
76285;BME280;71676;50.998;7.098;2023-09-08T00:25:15;101111.72;;;19.46;50.73
76285;BME280;71676;50.998;7.098;2023-09-08T00:27:42;101120.41;;;19.48;50.83
76285;BME280;71676;50.998;7.098;2023-09-08T00:30:11;101113.53;;;19.44;51.15
76285;BME280;71676;50.998;7.098;2023-09-08T00:32:38;101110.19;;;19.39;50.86
76285;BME280;71676;50.998;7.098;2023-09-08T00:35:05;101111.09;;;19.35;51.23
76285;BME280;71676;50.998;7.098;2023-09-08T00:37:32;101112.88;;;19.33;50.83
76285;BME280;71676;50.998;7.098;2023-09-08T00:39:59;101110.38;;;19.28;51.05
76285;BME280;71676;50.998;7.098;2023-09-08T00:42:26;101111.31;;;19.26;51.40
76285;BME280;71676;50.998;7.098;2023-09-08T00:44:52;101107.03;;;19.22;51.29
76285;BME280;71676;50.998;7.098;2023-09-08T00:47:20;101115.03;;;19.16;51.45
76285;BME280;71676;50.998;7.098;2023-09-08T00:49:47;101111.59;;;19.12;52.13
76285;BME280;71676;50.998;7.098;2023-09-08T00:52:14;101110.81;;;19.09;51.73
76285;BME280;71676;50.998;7.098;2023-09-08T00:54:41;101115.25;;;19.07;52.01
76285;BME280;71676;50.998;7.098;2023-09-08T00:57:09;101112.72;;;19.00;52.00
76285;BME280;71676;50.998;7.098;2023-09-08T00:59:36;101107.56;;;18.97;52.25
76285;BME280;71676;50.998;7.098;2023-09-08T01:02:03;101112.88;;;18.94;51.88
76285;BME280;71676;50.998;7.098;2023-09-08T01:04:31;101117.25;;;18.94;52.17
76285;BME280;71676;50.998;7.098;2023-09-08T01:06:59;101108.63;;;18.90;52.51
76285;BME280;71676;50.998;7.098;2023-09-08T01:09:26;101114.78;;;18.86;52.33
76285;BME280;71676;50.998;7.098;2023-09-08T01:11:53;101110.47;;;18.85;52.68
76285;BME280;71676;50.998;7.098;2023-09-08T01:14:20;101109.66;;;18.82;52.15
76285;BME280;71676;50.998;7.098;2023-09-08T01:16:47;101082.16;;;18.66;52.32
76285;BME280;71676;50.998;7.098;2023-09-08T01:19:16;101112.41;;;18.76;52.34
76285;BME280;71676;50.998;7.098;2023-09-08T01:25:12;101112.59;;;18.68;53.43
76285;BME280;71676;50.998;7.098;2023-09-08T01:27:44;101103.09;;;18.61;53.26
76285;BME280;71676;50.998;7.098;2023-09-08T01:30:13;101107.50;;;18.59;52.79
76285;BME280;71676;50.998;7.098;2023-09-08T01:32:41;101106.69;;;18.56;52.82
76285;BME280;71676;50.998;7.098;2023-09-08T01:35:08;101107.66;;;18.52;53.67
76285;BME280;71676;50.998;7.098;2023-09-08T01:37:35;101106.00;;;18.46;53.80
76285;BME280;71676;50.998;7.098;2023-09-08T01:40:02;101107.81;;;18.44;53.79
76285;BME280;71676;50.998;7.098;2023-09-08T01:42:30;101105.25;;;18.43;53.81
76285;BME280;71676;50.998;7.098;2023-09-08T01:45:03;101111.34;;;18.42;54.18
76285;BME280;71676;50.998;7.098;2023-09-08T01:47:30;101106.22;;;18.37;53.74
76285;BME280;71676;50.998;7.098;2023-09-08T01:49:57;101099.31;;;18.35;54.00
76285;BME280;71676;50.998;7.098;2023-09-08T01:52:24;101083.88;;;18.23;53.92
76285;BME280;71676;50.998;7.098;2023-09-08T01:54:51;101099.41;;;18.29;54.23
76285;BME280;71676;50.998;7.098;2023-09-08T01:57:18;101096.00;;;18.24;53.82
76285;BME280;71676;50.998;7.098;2023-09-08T01:59:46;101098.63;;;18.24;53.92
76285;BME280;71676;50.998;7.098;2023-09-08T02:02:13;101094.38;;;18.20;54.09
76285;BME280;71676;50.998;7.098;2023-09-08T02:04:40;101102.25;;;18.17;54.29
76285;BME280;71676;50.998;7.098;2023-09-08T02:07:07;101091.03;;;18.12;54.14
76285;BME280;71676;50.998;7.098;2023-09-08T02:09:34;101087.63;;;18.08;54.69
76285;BME280;71676;50.998;7.098;2023-09-08T02:12:01;101087.69;;;18.05;54.64
76285;BME280;71676;50.998;7.098;2023-09-08T02:14:28;101099.88;;;18.03;54.64
76285;BME280;71676;50.998;7.098;2023-09-08T02:16:59;101091.25;;;18.00;54.75
76285;BME280;71676;50.998;7.098;2023-09-08T02:19:26;101100.03;;;17.96;54.56
76285;BME280;71676;50.998;7.098;2023-09-08T02:21:52;101093.16;;;17.92;54.68
76285;BME280;71676;50.998;7.098;2023-09-08T02:24:19;101096.63;;;17.91;55.07
76285;BME280;71676;50.998;7.098;2023-09-08T02:26:46;101102.78;;;17.88;55.17
76285;BME280;71676;50.998;7.098;2023-09-08T02:29:12;101091.50;;;17.85;54.83
76285;BME280;71676;50.998;7.098;2023-09-08T02:31:39;101096.78;;;17.82;54.86
76285;BME280;71676;50.998;7.098;2023-09-08T02:34:07;101091.63;;;17.79;55.17
76285;BME280;71676;50.998;7.098;2023-09-08T02:36:34;101093.38;;;17.77;55.69
76285;BME280;71676;50.998;7.098;2023-09-08T02:39:01;101087.34;;;17.73;55.13
76285;BME280;71676;50.998;7.098;2023-09-08T02:41:27;101087.41;;;17.70;55.31
76285;BME280;71676;50.998;7.098;2023-09-08T02:43:54;101085.72;;;17.68;55.33
76285;BME280;71676;50.998;7.098;2023-09-08T02:46:20;101087.47;;;17.66;55.31
76285;BME280;71676;50.998;7.098;2023-09-08T02:48:47;101088.38;;;17.63;55.33
76285;BME280;71676;50.998;7.098;2023-09-08T02:51:15;101092.78;;;17.61;55.44
76285;BME280;71676;50.998;7.098;2023-09-08T02:53:42;101085.00;;;17.58;55.47
76285;BME280;71676;50.998;7.098;2023-09-08T02:56:08;101090.22;;;17.56;55.93
76285;BME280;71676;50.998;7.098;2023-09-08T02:58:35;101078.13;;;17.52;55.67
76285;BME280;71676;50.998;7.098;2023-09-08T03:01:12;101088.56;;;17.52;56.60
76285;BME280;71676;50.998;7.098;2023-09-08T03:03:40;101080.81;;;17.48;55.71
76285;BME280;71676;50.998;7.098;2023-09-08T03:06:06;101059.34;;;17.31;56.28
76285;BME280;71676;50.998;7.098;2023-09-08T03:08:34;101091.31;;;17.45;56.20
76285;BME280;71676;50.998;7.098;2023-09-08T03:11:03;101091.34;;;17.43;56.75
76285;BME280;71676;50.998;7.098;2023-09-08T03:13:30;101093.97;;;17.42;56.27
76285;BME280;71676;50.998;7.098;2023-09-08T03:15:56;101088.78;;;17.37;56.06
76285;BME280;71676;50.998;7.098;2023-09-08T03:18:23;101082.78;;;17.34;55.98
76285;BME280;71676;50.998;7.098;2023-09-08T03:20:51;101083.69;;;17.31;56.69
76285;BME280;71676;50.998;7.098;2023-09-08T03:23:18;101082.00;;;17.29;56.34
76285;BME280;71676;50.998;7.098;2023-09-08T03:25:48;101083.75;;;17.27;57.09
76285;BME280;71676;50.998;7.098;2023-09-08T03:28:15;101076.84;;;17.23;56.92
76285;BME280;71676;50.998;7.098;2023-09-08T03:30:41;101073.56;;;17.10;57.02
76285;BME280;71676;50.998;7.098;2023-09-08T03:33:08;101076.16;;;17.12;56.96
76285;BME280;71676;50.998;7.098;2023-09-08T03:35:35;101081.31;;;17.16;56.45
76285;BME280;71676;50.998;7.098;2023-09-08T03:38:01;101080.47;;;17.14;56.83
76285;BME280;71676;50.998;7.098;2023-09-08T03:40:28;101061.50;;;17.03;56.90
76285;BME280;71676;50.998;7.098;2023-09-08T03:42:56;101080.56;;;17.10;56.76
76285;BME280;71676;50.998;7.098;2023-09-08T03:45:23;101077.13;;;17.06;57.00
76285;BME280;71676;50.998;7.098;2023-09-08T03:47:49;101053.00;;;16.91;57.13
76285;BME280;71676;50.998;7.098;2023-09-08T03:50:16;101079.75;;;17.03;56.80
76285;BME280;71676;50.998;7.098;2023-09-08T03:52:43;101084.09;;;17.01;56.80
76285;BME280;71676;50.998;7.098;2023-09-08T03:55:09;101078.06;;;16.98;56.92
76285;BME280;71676;50.998;7.098;2023-09-08T03:57:36;101081.53;;;16.98;56.78
76285;BME280;71676;50.998;7.098;2023-09-08T04:00:06;101090.25;;;16.96;57.00
76285;BME280;71676;50.998;7.098;2023-09-08T04:02:33;101089.44;;;16.94;57.14
76285;BME280;71676;50.998;7.098;2023-09-08T04:04:59;101086.88;;;16.89;56.96
76285;BME280;71676;50.998;7.098;2023-09-08T04:07:26;101090.38;;;16.87;56.92
76285;BME280;71676;50.998;7.098;2023-09-08T04:09:52;101089.56;;;16.83;57.49
76285;BME280;71676;50.998;7.098;2023-09-08T04:12:19;101088.72;;;16.83;57.33
76285;BME280;71676;50.998;7.098;2023-09-08T04:14:46;101090.47;;;16.81;57.02
76285;BME280;71676;50.998;7.098;2023-09-08T04:17:15;101090.50;;;16.79;57.54
76285;BME280;71676;50.998;7.098;2023-09-08T04:19:42;101094.84;;;16.79;57.12
76285;BME280;71676;50.998;7.098;2023-09-08T04:22:09;101089.69;;;16.74;57.10
76285;BME280;71676;50.998;7.098;2023-09-08T04:24:35;101095.78;;;16.72;57.53
76285;BME280;71676;50.998;7.098;2023-09-08T04:27:02;101084.53;;;16.70;57.38
76285;BME280;71676;50.998;7.098;2023-09-08T04:29:29;101081.09;;;16.68;57.22
76285;BME280;71676;50.998;7.098;2023-09-08T04:31:56;101084.59;;;16.67;57.42
76285;BME280;71676;50.998;7.098;2023-09-08T04:34:24;101080.31;;;16.61;57.16
76285;BME280;71676;50.998;7.098;2023-09-08T04:36:51;101083.78;;;16.62;57.72
76285;BME280;71676;50.998;7.098;2023-09-08T04:39:17;101087.25;;;16.59;57.84
76285;BME280;71676;50.998;7.098;2023-09-08T04:41:44;101079.53;;;16.53;57.44
76285;BME280;71676;50.998;7.098;2023-09-08T04:44:10;101083.88;;;16.53;57.98
76285;BME280;71676;50.998;7.098;2023-09-08T04:46:37;101080.47;;;16.49;58.12
76285;BME280;71676;50.998;7.098;2023-09-08T04:49:04;101071.84;;;16.46;57.91
76285;BME280;71676;50.998;7.098;2023-09-08T04:51:32;101083.94;;;16.47;58.16
76285;BME280;71676;50.998;7.098;2023-09-08T04:53:58;101056.41;;;16.29;58.12
76285;BME280;71676;50.998;7.098;2023-09-08T04:56:25;101076.22;;;16.42;57.89
76285;BME280;71676;50.998;7.098;2023-09-08T04:58:51;101065.06;;;16.31;58.27
76285;BME280;71676;50.998;7.098;2023-09-08T05:01:20;101087.50;;;16.40;58.31
76285;BME280;71676;50.998;7.098;2023-09-08T05:03:47;101096.19;;;16.39;58.57
76285;BME280;71676;50.998;7.098;2023-09-08T05:06:13;101098.81;;;16.37;58.12
76285;BME280;71676;50.998;7.098;2023-09-08T05:08:41;101101.44;;;16.36;58.21
76285;BME280;71676;50.998;7.098;2023-09-08T05:11:09;101095.38;;;16.34;58.10
76285;BME280;71676;50.998;7.098;2023-09-08T05:13:35;101088.47;;;16.31;58.53
76285;BME280;71676;50.998;7.098;2023-09-08T05:16:02;101090.25;;;16.28;58.32
76285;BME280;71676;50.998;7.098;2023-09-08T05:18:36;101093.75;;;16.25;58.62
76285;BME280;71676;50.998;7.098;2023-09-08T05:21:03;101092.88;;;16.25;58.69
76285;BME280;71676;50.998;7.098;2023-09-08T05:23:30;101096.34;;;16.22;58.37
76285;BME280;71676;50.998;7.098;2023-09-08T05:25:58;101091.13;;;16.22;58.54
76285;BME280;71676;50.998;7.098;2023-09-08T05:28:25;101095.50;;;16.20;58.41
76285;BME280;71676;50.998;7.098;2023-09-08T05:30:51;101104.19;;;16.19;58.54
76285;BME280;71676;50.998;7.098;2023-09-08T05:33:18;101094.63;;;16.19;58.89
76285;BME280;71676;50.998;7.098;2023-09-08T05:35:45;101087.75;;;16.15;59.04
76285;BME280;71676;50.998;7.098;2023-09-08T05:38:12;101088.59;;;16.16;58.75
76285;BME280;71676;50.998;7.098;2023-09-08T05:40:39;101089.47;;;16.16;58.78
76285;BME280;71676;50.998;7.098;2023-09-08T05:43:07;101099.00;;;16.17;59.07
76285;BME280;71676;50.998;7.098;2023-09-08T05:45:34;101101.59;;;16.17;59.29
76285;BME280;71676;50.998;7.098;2023-09-08T05:48:01;101102.47;;;16.18;59.35
76285;BME280;71676;50.998;7.098;2023-09-08T05:50:27;101098.16;;;16.17;58.94
76285;BME280;71676;50.998;7.098;2023-09-08T05:52:54;101105.97;;;16.17;58.86
76285;BME280;71676;50.998;7.098;2023-09-08T05:55:20;101099.88;;;16.16;59.10
76285;BME280;71676;50.998;7.098;2023-09-08T05:57:47;101100.75;;;16.17;59.56
76285;BME280;71676;50.998;7.098;2023-09-08T06:00:16;101106.78;;;16.19;59.39
76285;BME280;71676;50.998;7.098;2023-09-08T06:02:43;101104.19;;;16.19;59.19
76285;BME280;71676;50.998;7.098;2023-09-08T06:05:09;101106.75;;;16.20;59.45
76285;BME280;71676;50.998;7.098;2023-09-08T06:07:36;101118.91;;;16.23;59.22
76285;BME280;71676;50.998;7.098;2023-09-08T06:10:03;101108.50;;;16.25;59.40
76285;BME280;71676;50.998;7.098;2023-09-08T06:12:30;101112.81;;;16.27;59.40
76285;BME280;71676;50.998;7.098;2023-09-08T06:14:56;101112.78;;;16.29;59.79
76285;BME280;71676;50.998;7.098;2023-09-08T06:17:24;101107.56;;;16.33;59.76
76285;BME280;71676;50.998;7.098;2023-09-08T06:19:51;101111.84;;;16.37;59.92
76285;BME280;71676;50.998;7.098;2023-09-08T06:22:17;101125.69;;;16.39;59.61
76285;BME280;71676;50.998;7.098;2023-09-08T06:24:44;101121.28;;;16.46;60.50
76285;BME280;71676;50.998;7.098;2023-09-08T06:27:11;101115.16;;;16.50;60.71
76285;BME280;71676;50.998;7.098;2023-09-08T06:29:38;101120.31;;;16.54;61.54
76285;BME280;71676;50.998;7.098;2023-09-08T06:32:06;101113.28;;;16.61;61.34
76285;BME280;71676;50.998;7.098;2023-09-08T06:34:34;101113.13;;;16.74;62.27
76285;BME280;71676;50.998;7.098;2023-09-08T06:37:01;101101.72;;;16.84;62.90
76285;BME280;71676;50.998;7.098;2023-09-08T06:39:28;101100.75;;;16.91;61.55
76285;BME280;71676;50.998;7.098;2023-09-08T06:41:55;101099.69;;;17.07;60.85
76285;BME280;71676;50.998;7.098;2023-09-08T06:44:21;101101.03;;;17.32;59.86
76285;BME280;71676;50.998;7.098;2023-09-08T06:46:48;101100.75;;;17.50;57.87
76285;BME280;71676;50.998;7.098;2023-09-08T06:49:15;101098.72;;;17.69;57.55
76285;BME280;71676;50.998;7.098;2023-09-08T06:51:43;101102.75;;;17.90;55.90
76285;BME280;71676;50.998;7.098;2023-09-08T06:54:09;101101.47;;;18.12;56.05
76285;BME280;71676;50.998;7.098;2023-09-08T06:56:36;101101.94;;;18.32;56.60
76285;BME280;71676;50.998;7.098;2023-09-08T06:59:03;101092.28;;;18.37;57.42
76285;BME280;71676;50.998;7.098;2023-09-08T07:01:29;101107.47;;;18.61;54.17
76285;BME280;71676;50.998;7.098;2023-09-08T07:03:56;101104.53;;;18.77;52.46
76285;BME280;71676;50.998;7.098;2023-09-08T07:06:22;101111.16;;;18.93;51.38
76285;BME280;71676;50.998;7.098;2023-09-08T07:08:50;101109.06;;;19.09;51.19
76285;BME280;71676;50.998;7.098;2023-09-08T07:11:17;101121.06;;;19.19;51.13
76285;BME280;71676;50.998;7.098;2023-09-08T07:13:44;101113.72;;;19.35;49.94
76285;BME280;71676;50.998;7.098;2023-09-08T07:16:10;101114.47;;;19.41;49.61
76285;BME280;71676;50.998;7.098;2023-09-08T07:18:37;101111.44;;;19.58;49.25
76285;BME280;71676;50.998;7.098;2023-09-08T07:21:04;101105.06;;;19.69;49.63
76285;BME280;71676;50.998;7.098;2023-09-08T07:23:30;101108.34;;;19.77;48.96
76285;BME280;71676;50.998;7.098;2023-09-08T07:25:58;101109.47;;;20.01;49.40
76285;BME280;71676;50.998;7.098;2023-09-08T07:28:25;101109.34;;;20.07;48.64
76285;BME280;71676;50.998;7.098;2023-09-08T07:30:52;101106.38;;;20.20;47.64
76285;BME280;71676;50.998;7.098;2023-09-08T07:33:18;101106.44;;;20.48;48.76
76285;BME280;71676;50.998;7.098;2023-09-08T07:35:45;101105.78;;;20.71;47.45
76285;BME280;71676;50.998;7.098;2023-09-08T07:38:12;101105.97;;;20.95;49.63
76285;BME280;71676;50.998;7.098;2023-09-08T07:40:38;101108.78;;;21.17;47.25
76285;BME280;71676;50.998;7.098;2023-09-08T07:43:06;101109.97;;;21.34;45.45
76285;BME280;71676;50.998;7.098;2023-09-08T07:45:33;101102.41;;;21.53;45.55
76285;BME280;71676;50.998;7.098;2023-09-08T07:47:59;101108.72;;;21.73;47.88
76285;BME280;71676;50.998;7.098;2023-09-08T07:50:28;101107.84;;;21.99;47.61
76285;BME280;71676;50.998;7.098;2023-09-08T07:52:56;101105.69;;;22.12;46.45
76285;BME280;71676;50.998;7.098;2023-09-08T07:55:23;101101.50;;;22.31;47.26
76285;BME280;71676;50.998;7.098;2023-09-08T07:57:52;101097.56;;;22.42;44.43
76285;BME280;71676;50.998;7.098;2023-09-08T08:00:21;101095.81;;;22.43;45.05
76285;BME280;71676;50.998;7.098;2023-09-08T08:02:49;101103.78;;;22.87;46.47
76285;BME280;71676;50.998;7.098;2023-09-08T08:05:16;101097.56;;;23.12;45.47
76285;BME280;71676;50.998;7.098;2023-09-08T08:07:43;101108.16;;;23.32;42.76
76285;BME280;71676;50.998;7.098;2023-09-08T08:10:10;101107.19;;;23.34;41.21
76285;BME280;71676;50.998;7.098;2023-09-08T08:12:38;101101.38;;;23.48;43.41
76285;BME280;71676;50.998;7.098;2023-09-08T08:15:06;101102.59;;;23.61;41.07
76285;BME280;71676;50.998;7.098;2023-09-08T08:17:37;101108.34;;;23.70;40.92
76285;BME280;71676;50.998;7.098;2023-09-08T08:20:05;101098.63;;;23.92;41.91
76285;BME280;71676;50.998;7.098;2023-09-08T08:22:34;101085.41;;;24.14;42.43
76285;BME280;71676;50.998;7.098;2023-09-08T08:25:01;101099.22;;;24.39;41.82
76285;BME280;71676;50.998;7.098;2023-09-08T08:27:29;101097.59;;;24.75;42.12
76285;BME280;71676;50.998;7.098;2023-09-08T08:29:56;101100.09;;;24.97;41.17
76285;BME280;71676;50.998;7.098;2023-09-08T08:32:24;101094.16;;;25.10;39.98
76285;BME280;71676;50.998;7.098;2023-09-08T08:34:52;101083.75;;;25.26;40.58
76285;BME280;71676;50.998;7.098;2023-09-08T08:37:19;101099.28;;;25.32;38.39
76285;BME280;71676;50.998;7.098;2023-09-08T08:39:46;101093.91;;;25.69;39.79
76285;BME280;71676;50.998;7.098;2023-09-08T08:42:12;101095.03;;;25.99;39.19
76285;BME280;71676;50.998;7.098;2023-09-08T08:44:40;101088.88;;;25.99;36.71
76285;BME280;71676;50.998;7.098;2023-09-08T08:47:08;101087.47;;;26.09;37.38
76285;BME280;71676;50.998;7.098;2023-09-08T08:49:36;101093.69;;;26.08;37.20
76285;BME280;71676;50.998;7.098;2023-09-08T08:52:06;101091.09;;;26.23;38.19
76285;BME280;71676;50.998;7.098;2023-09-08T08:54:34;101091.19;;;26.39;38.29
76285;BME280;71676;50.998;7.098;2023-09-08T08:57:04;101089.72;;;26.33;37.18
76285;BME280;71676;50.998;7.098;2023-09-08T08:59:31;101089.84;;;26.47;37.28
76285;BME280;71676;50.998;7.098;2023-09-08T09:01:58;101074.56;;;27.00;36.81
76285;BME280;71676;50.998;7.098;2023-09-08T09:04:25;101095.38;;;27.53;36.95
76285;BME280;71676;50.998;7.098;2023-09-08T09:06:53;101090.53;;;27.14;35.09
76285;BME280;71676;50.998;7.098;2023-09-08T09:09:21;101103.56;;;27.33;35.26
76285;BME280;71676;50.998;7.098;2023-09-08T09:11:48;101091.25;;;27.63;34.57
76285;BME280;71676;50.998;7.098;2023-09-08T09:14:15;101085.06;;;27.92;35.45
76285;BME280;71676;50.998;7.098;2023-09-08T09:16:42;101086.69;;;28.38;36.43
76285;BME280;71676;50.998;7.098;2023-09-08T09:19:17;101085.34;;;28.31;32.18
76285;BME280;71676;50.998;7.098;2023-09-08T09:21:47;101087.28;;;28.58;33.05
76285;BME280;71676;50.998;7.098;2023-09-08T09:24:17;101067.69;;;28.02;32.20
76285;BME280;71676;50.998;7.098;2023-09-08T09:26:45;101082.63;;;28.61;35.18
76285;BME280;71676;50.998;7.098;2023-09-08T09:29:12;101084.84;;;28.95;34.00
76285;BME280;71676;50.998;7.098;2023-09-08T09:31:50;101084.47;;;29.15;31.57
76285;BME280;71676;50.998;7.098;2023-09-08T09:34:18;101082.50;;;28.91;31.52
76285;BME280;71676;50.998;7.098;2023-09-08T09:36:46;101080.78;;;28.76;32.29
76285;BME280;71676;50.998;7.098;2023-09-08T09:39:16;101075.72;;;29.40;32.33
76285;BME280;71676;50.998;7.098;2023-09-08T09:41:45;101083.78;;;29.38;31.83
76285;BME280;71676;50.998;7.098;2023-09-08T09:44:12;101085.63;;;29.38;33.80
76285;BME280;71676;50.998;7.098;2023-09-08T09:46:43;101078.53;;;29.90;29.50
76285;BME280;71676;50.998;7.098;2023-09-08T09:49:10;101076.41;;;29.95;31.67
76285;BME280;71676;50.998;7.098;2023-09-08T09:51:40;101083.63;;;29.93;31.33
76285;BME280;71676;50.998;7.098;2023-09-08T09:54:07;101085.09;;;29.72;29.35
76285;BME280;71676;50.998;7.098;2023-09-08T09:56:37;101082.72;;;30.44;32.20
76285;BME280;71676;50.998;7.098;2023-09-08T09:59:07;101088.59;;;30.98;31.45
76285;BME280;71676;50.998;7.098;2023-09-08T10:01:34;101091.19;;;31.23;30.41
76285;BME280;71676;50.998;7.098;2023-09-08T10:04:01;101082.03;;;31.38;29.62
76285;BME280;71676;50.998;7.098;2023-09-08T10:06:31;101080.22;;;30.91;28.44
76285;BME280;71676;50.998;7.098;2023-09-08T10:08:59;101080.63;;;30.98;30.05
76285;BME280;71676;50.998;7.098;2023-09-08T10:11:28;101078.38;;;31.52;30.45
76285;BME280;71676;50.998;7.098;2023-09-08T10:13:58;101072.13;;;31.98;28.53
76285;BME280;71676;50.998;7.098;2023-09-08T10:16:27;101074.69;;;32.11;29.34
76285;BME280;71676;50.998;7.098;2023-09-08T10:18:58;101072.03;;;32.33;29.20
76285;BME280;71676;50.998;7.098;2023-09-08T10:21:26;101059.31;;;32.59;27.11
76285;BME280;71676;50.998;7.098;2023-09-08T10:23:57;101066.97;;;32.63;27.50
76285;BME280;71676;50.998;7.098;2023-09-08T10:26:27;101068.81;;;32.52;28.68
76285;BME280;71676;50.998;7.098;2023-09-08T10:28:56;101079.97;;;31.31;26.93
76285;BME280;71676;50.998;7.098;2023-09-08T10:31:26;101070.53;;;31.61;28.21
76285;BME280;71676;50.998;7.098;2023-09-08T10:33:54;101067.06;;;32.17;28.95
76285;BME280;71676;50.998;7.098;2023-09-08T10:36:22;101066.97;;;32.63;28.19
76285;BME280;71676;50.998;7.098;2023-09-08T10:38:49;101063.13;;;33.10;26.57
76285;BME280;71676;50.998;7.098;2023-09-08T10:41:27;101055.13;;;33.10;26.51
76285;BME280;71676;50.998;7.098;2023-09-08T10:43:58;101061.06;;;33.13;26.88
76285;BME280;71676;50.998;7.098;2023-09-08T10:46:29;101059.88;;;33.06;26.42
76285;BME280;71676;50.998;7.098;2023-09-08T10:49:01;101060.66;;;32.75;26.91
76285;BME280;71676;50.998;7.098;2023-09-08T10:51:28;101052.75;;;33.27;27.65
76285;BME280;71676;50.998;7.098;2023-09-08T10:53:55;101056.94;;;33.72;26.28
76285;BME280;71676;50.998;7.098;2023-09-08T10:56:27;101048.84;;;32.78;26.72
76285;BME280;71676;50.998;7.098;2023-09-08T10:58:54;101051.19;;;33.56;27.23
76285;BME280;71676;50.998;7.098;2023-09-08T11:01:21;101044.69;;;33.91;25.90
76285;BME280;71676;50.998;7.098;2023-09-08T11:03:53;101054.38;;;34.12;25.10
76285;BME280;71676;50.998;7.098;2023-09-08T11:06:20;101049.06;;;34.42;26.41
76285;BME280;71676;50.998;7.098;2023-09-08T11:08:48;101050.81;;;34.62;25.62
76285;BME280;71676;50.998;7.098;2023-09-08T11:11:18;101052.19;;;33.76;24.25
76285;BME280;71676;50.998;7.098;2023-09-08T11:13:45;101047.28;;;33.29;25.09
76285;BME280;71676;50.998;7.098;2023-09-08T11:16:13;101044.66;;;33.18;25.40
76285;BME280;71676;50.998;7.098;2023-09-08T11:18:40;101046.31;;;33.30;25.96
76285;BME280;71676;50.998;7.098;2023-09-08T11:21:10;101053.69;;;33.90;25.61
76285;BME280;71676;50.998;7.098;2023-09-08T11:23:37;101047.38;;;34.41;25.39
76285;BME280;71676;50.998;7.098;2023-09-08T11:26:04;101043.28;;;34.77;26.30
76285;BME280;71676;50.998;7.098;2023-09-08T11:28:34;101039.16;;;34.73;24.16
76285;BME280;71676;50.998;7.098;2023-09-08T11:31:01;101031.59;;;34.48;23.71
76285;BME280;71676;50.998;7.098;2023-09-08T11:33:33;101036.09;;;34.47;25.58
76285;BME280;71676;50.998;7.098;2023-09-08T11:36:01;101047.94;;;34.84;25.44
76285;BME280;71676;50.998;7.098;2023-09-08T11:38:29;101033.28;;;34.79;24.95
76285;BME280;71676;50.998;7.098;2023-09-08T11:40:57;101038.34;;;34.42;24.25
76285;BME280;71676;50.998;7.098;2023-09-08T11:43:25;101044.56;;;34.22;24.00
76285;BME280;71676;50.998;7.098;2023-09-08T11:45:52;101040.25;;;34.61;24.75
76285;BME280;71676;50.998;7.098;2023-09-08T11:48:19;101042.78;;;34.62;24.44
76285;BME280;71676;50.998;7.098;2023-09-08T11:50:46;101041.66;;;34.65;24.50
76285;BME280;71676;50.998;7.098;2023-09-08T11:53:12;101038.13;;;34.55;24.97
76285;BME280;71676;50.998;7.098;2023-09-08T11:55:46;101033.41;;;34.17;25.16
76285;BME280;71676;50.998;7.098;2023-09-08T11:58:13;101033.69;;;34.84;25.66
76285;BME280;71676;50.998;7.098;2023-09-08T12:00:41;101035.19;;;35.26;23.75
76285;BME280;71676;50.998;7.098;2023-09-08T12:03:11;101032.88;;;34.93;24.15
76285;BME280;71676;50.998;7.098;2023-09-08T12:05:38;101039.28;;;35.21;23.91
76285;BME280;71676;50.998;7.098;2023-09-08T12:08:06;101039.50;;;35.08;23.70
76285;BME280;71676;50.998;7.098;2023-09-08T12:10:37;101031.47;;;34.98;24.16
76285;BME280;71676;50.998;7.098;2023-09-08T12:13:06;101030.38;;;35.20;23.71
76285;BME280;71676;50.998;7.098;2023-09-08T12:15:33;101027.25;;;35.05;23.00
76285;BME280;71676;50.998;7.098;2023-09-08T12:18:01;101032.44;;;34.88;23.29
76285;BME280;71676;50.998;7.098;2023-09-08T12:20:28;101025.25;;;34.88;23.68
76285;BME280;71676;50.998;7.098;2023-09-08T12:22:57;101022.00;;;34.94;22.96
76285;BME280;71676;50.998;7.098;2023-09-08T12:25:24;101022.91;;;35.33;23.57
76285;BME280;71676;50.998;7.098;2023-09-08T12:27:54;101021.31;;;35.02;21.47
76285;BME280;71676;50.998;7.098;2023-09-08T12:30:23;101012.28;;;35.03;22.42
76285;BME280;71676;50.998;7.098;2023-09-08T12:32:56;101018.31;;;34.37;22.73
76285;BME280;71676;50.998;7.098;2023-09-08T12:35:23;101017.09;;;34.20;23.60
76285;BME280;71676;50.998;7.098;2023-09-08T12:37:53;101007.16;;;34.02;23.30
76285;BME280;71676;50.998;7.098;2023-09-08T12:40:20;101002.84;;;34.50;23.13
76285;BME280;71676;50.998;7.098;2023-09-08T12:42:46;101013.50;;;34.70;23.22
76285;BME280;71676;50.998;7.098;2023-09-08T12:45:13;101004.34;;;34.82;23.02
76285;BME280;71676;50.998;7.098;2023-09-08T12:47:42;101010.47;;;33.85;22.48
76285;BME280;71676;50.998;7.098;2023-09-08T12:50:10;101008.91;;;32.76;23.84
76285;BME280;71676;50.998;7.098;2023-09-08T12:52:38;101002.59;;;33.51;24.06
76285;BME280;71676;50.998;7.098;2023-09-08T12:55:05;101004.59;;;34.00;23.03